createdAt,value
2022-11-24T00:03:28.021Z,995.9
2022-11-24T00:08:34.121Z,996
2022-11-24T00:13:40.218Z,996
2022-11-24T00:18:46.326Z,996
2022-11-24T00:23:51.432Z,995.9
2022-11-24T00:28:57.541Z,996
2022-11-24T00:34:03.755Z,996
2022-11-24T00:39:09.757Z,996.1
2022-11-24T00:44:15.848Z,996.1
2022-11-24T00:49:21.953Z,996.2
2022-11-24T00:59:34.151Z,996.4
2022-11-24T01:04:39.285Z,996.4
2022-11-24T01:09:44.385Z,996.3
2022-11-24T01:14:50.545Z,996.4
2022-11-24T01:19:56.592Z,996.5
2022-11-24T01:25:02.693Z,996.4
2022-11-24T01:30:08.805Z,996.4
2022-11-24T01:35:14.888Z,996.5
2022-11-24T01:40:21.035Z,996.5
2022-11-24T01:45:27.111Z,996.5
2022-11-24T01:50:33.200Z,996.6
2022-11-24T01:55:39.279Z,996.7
2022-11-24T02:00:45.382Z,996.8
2022-11-24T02:10:57.579Z,996.8
2022-11-24T02:16:02.687Z,996.8
2022-11-24T02:21:08.798Z,996.9
2022-11-24T02:26:14.884Z,996.9
2022-11-24T02:31:20.984Z,996.9
2022-11-24T02:36:27.077Z,997
2022-11-24T02:41:33.186Z,997
2022-11-24T02:46:39.270Z,997
2022-11-24T02:51:45.371Z,997
2022-11-24T02:56:51.456Z,997
2022-11-24T03:01:57.641Z,997.1
2022-11-24T03:07:03.673Z,997.2
2022-11-24T03:12:09.763Z,997.1
2022-11-24T03:17:15.893Z,997.2
2022-11-24T03:22:20.990Z,997.2
2022-11-24T03:27:27.086Z,997.2
2022-11-24T03:32:33.188Z,997.3
2022-11-24T03:37:39.278Z,997.3
2022-11-24T03:42:44.415Z,997.3
2022-11-24T03:47:50.488Z,997.4
2022-11-24T03:52:56.582Z,997.5
2022-11-24T03:58:02.704Z,997.5
2022-11-24T04:03:08.800Z,997.6
2022-11-24T04:08:14.902Z,997.5
2022-11-24T04:13:20.994Z,997.6
2022-11-24T04:18:27.103Z,997.5
2022-11-24T04:23:33.284Z,997.5
2022-11-24T04:28:39.303Z,997.6
2022-11-24T04:33:45.414Z,997.8
2022-11-24T04:38:51.504Z,997.8
2022-11-24T04:43:57.594Z,997.8
2022-11-24T04:49:02.707Z,997.9
2022-11-24T04:54:08.816Z,998
2022-11-24T04:59:14.908Z,998
2022-11-24T05:04:20.986Z,998.1
2022-11-24T05:09:27.098Z,998.2
2022-11-24T05:14:33.209Z,998.1
2022-11-24T05:19:39.301Z,998.2
2022-11-24T05:24:45.398Z,998.2
2022-11-24T05:29:51.518Z,998.3
2022-11-24T05:34:57.590Z,998.4
2022-11-24T05:40:03.701Z,998.5
2022-11-24T05:45:09.792Z,998.5
2022-11-24T05:50:15.909Z,998.5
2022-11-24T05:55:21.025Z,998.4
2022-11-24T06:00:27.108Z,998.5
2022-11-24T06:05:33.230Z,998.6
2022-11-24T06:10:39.295Z,998.6
2022-11-24T06:15:45.416Z,998.7
2022-11-24T06:20:51.504Z,998.6
2022-11-24T06:25:57.592Z,998.6
2022-11-24T06:31:03.857Z,998.8
2022-11-24T06:36:09.797Z,998.8
2022-11-24T06:41:15.900Z,998.9
2022-11-24T06:46:22.007Z,998.9
2022-11-24T06:51:28.092Z,998.9
2022-11-24T06:56:34.188Z,999
2022-11-24T07:01:39.305Z,999
2022-11-24T07:06:45.422Z,999
2022-11-24T07:11:51.493Z,999.1
2022-11-24T07:16:57.605Z,999.1
2022-11-24T07:22:03.770Z,999.1
2022-11-24T07:27:09.798Z,999.2
2022-11-24T07:32:15.887Z,999.3
2022-11-24T07:37:22.013Z,999.3
2022-11-24T07:42:28.086Z,999.5
2022-11-24T07:47:34.175Z,999.5
2022-11-24T07:52:40.277Z,999.5
2022-11-24T07:57:46.381Z,999.5
2022-11-24T08:02:52.528Z,999.5
2022-11-24T08:07:57.651Z,999.7
2022-11-24T08:13:03.684Z,999.5
2022-11-24T08:18:09.820Z,999.6
2022-11-24T08:23:15.900Z,999.7
2022-11-24T08:28:21.991Z,999.7
2022-11-24T08:33:28.107Z,999.7
2022-11-24T08:38:34.198Z,999.8
2022-11-24T08:43:40.276Z,999.8
2022-11-24T08:48:46.400Z,999.8
2022-11-24T08:53:52.494Z,999.9
2022-11-24T08:58:58.607Z,999.8
2022-11-24T09:04:04.713Z,999.9
2022-11-24T09:09:10.801Z,999.9
2022-11-24T09:14:15.875Z,999.9
2022-11-24T09:19:22.005Z,1000
2022-11-24T09:24:28.188Z,1000
2022-11-24T09:29:34.348Z,1000
2022-11-24T09:34:40.365Z,1000
2022-11-24T09:39:46.481Z,1000
2022-11-24T09:44:52.527Z,1000.1
2022-11-24T09:49:58.660Z,1000
2022-11-24T09:55:04.763Z,1000.2
2022-11-24T10:00:10.901Z,1000.1
2022-11-24T10:05:16.863Z,1000.2
2022-11-24T10:10:22.995Z,1000.2
2022-11-24T10:15:29.133Z,1000.3
2022-11-24T10:20:34.173Z,1000.3
2022-11-24T10:25:40.283Z,1000.3
2022-11-24T10:30:46.405Z,1000.4
2022-11-24T10:35:52.498Z,1000.3
2022-11-24T10:40:58.644Z,1000.3
2022-11-24T10:46:04.664Z,1000.4
2022-11-24T10:51:10.766Z,1000.3
2022-11-24T10:56:16.854Z,1000.2
2022-11-24T11:01:22.944Z,1000.3
2022-11-24T11:06:29.095Z,1000.3
2022-11-24T11:11:35.124Z,1000.3
2022-11-24T11:16:41.309Z,1000.3
2022-11-24T11:21:47.327Z,1000.3
2022-11-24T11:26:52.435Z,1000.3
2022-11-24T11:31:58.539Z,1000.3
2022-11-24T11:37:04.740Z,1000.4
2022-11-24T11:42:10.725Z,1000.3
2022-11-24T11:47:16.835Z,1000.5
2022-11-24T11:52:22.921Z,1000.4
2022-11-24T11:57:29.105Z,1000.4
2022-11-24T12:02:35.158Z,1000.5
2022-11-24T12:07:41.219Z,1000.5
2022-11-24T12:12:47.324Z,1000.5
2022-11-24T12:17:53.455Z,1000.6
2022-11-24T12:22:59.514Z,1000.7
2022-11-24T12:28:05.689Z,1000.7
2022-11-24T12:33:10.877Z,1000.7
2022-11-24T12:38:16.829Z,1000.8
2022-11-24T12:43:22.920Z,1000.8
2022-11-24T12:48:29.006Z,1000.9
2022-11-24T12:53:35.119Z,1000.9
2022-11-24T12:58:41.342Z,1000.9
2022-11-24T13:03:47.473Z,1001
2022-11-24T13:08:53.582Z,1001
2022-11-24T13:13:59.721Z,1001
2022-11-24T13:19:05.777Z,1001
2022-11-24T13:24:11.686Z,1001.1
2022-11-24T13:29:17.966Z,1001.2
2022-11-24T13:34:23.979Z,1001.2
2022-11-24T13:39:29.141Z,1001.3
2022-11-24T13:44:35.080Z,1001.4
2022-11-24T13:49:41.350Z,1001.4
2022-11-24T13:54:47.453Z,1001.5
2022-11-24T13:59:53.516Z,1001.4
2022-11-24T14:04:59.661Z,1001.5
2022-11-24T14:10:05.770Z,1001.5
2022-11-24T14:15:11.830Z,1001.5
2022-11-24T14:20:17.879Z,1001.6
2022-11-24T14:25:24.037Z,1001.6
2022-11-24T14:30:30.111Z,1001.6
2022-11-24T14:35:36.051Z,1001.7
2022-11-24T14:40:42.387Z,1001.7
2022-11-24T14:45:47.419Z,1001.8
2022-11-24T14:50:53.362Z,1001.8
2022-11-24T14:55:59.568Z,1001.8
2022-11-24T15:01:05.798Z,1002
2022-11-24T15:06:11.832Z,1002
2022-11-24T15:11:17.974Z,1002.1
2022-11-24T15:16:23.981Z,1002.1
2022-11-24T15:21:29.995Z,1002.2
2022-11-24T15:26:36.200Z,1002.2
2022-11-24T15:31:42.249Z,1002.2
2022-11-24T15:36:48.438Z,1002.4
2022-11-24T15:41:54.328Z,1002.4
2022-11-24T15:47:00.594Z,1002.3
2022-11-24T15:52:05.696Z,1002.4
2022-11-24T15:57:11.635Z,1002.4
2022-11-24T16:02:17.753Z,1002.5
2022-11-24T16:07:23.945Z,1002.4
2022-11-24T16:12:29.981Z,1002.5
2022-11-24T16:17:36.121Z,1002.6
2022-11-24T16:22:42.197Z,1002.7
2022-11-24T16:27:48.364Z,1002.7
2022-11-24T16:32:54.361Z,1002.7
2022-11-24T16:38:00.420Z,1002.7
2022-11-24T16:43:06.510Z,1002.7
2022-11-24T16:48:12.802Z,1002.8
2022-11-24T16:53:18.709Z,1002.7
2022-11-24T16:58:23.912Z,1002.8
2022-11-24T17:03:29.918Z,1002.8
2022-11-24T17:08:36.069Z,1002.9
2022-11-24T17:13:42.288Z,1003
2022-11-24T17:18:48.417Z,1003
2022-11-24T17:23:54.335Z,1002.9
2022-11-24T17:29:00.510Z,1002.9
2022-11-24T17:34:06.621Z,1003
2022-11-24T17:39:12.703Z,1003
2022-11-24T17:44:18.700Z,1003
2022-11-24T17:49:24.894Z,1002.9
2022-11-24T17:54:30.904Z,1003.1
2022-11-24T17:59:37.129Z,1003.1
2022-11-24T18:04:42.285Z,1003.2
2022-11-24T18:09:48.333Z,1003.3
2022-11-24T18:14:54.417Z,1003.3
2022-11-24T18:20:00.541Z,1003.4
2022-11-24T18:25:06.563Z,1003.5
2022-11-24T18:30:12.644Z,1003.5
2022-11-24T18:35:18.704Z,1003.5
2022-11-24T18:40:24.941Z,1003.5
2022-11-24T18:45:30.883Z,1003.5
2022-11-24T18:50:37.054Z,1003.5
2022-11-24T18:55:43.272Z,1003.6
2022-11-24T19:00:49.183Z,1003.6
2022-11-24T19:05:55.363Z,1003.5
2022-11-24T19:11:00.400Z,1003.5
2022-11-24T19:16:06.661Z,1003.5
2022-11-24T19:21:12.646Z,1003.6
2022-11-24T19:26:18.716Z,1003.6
2022-11-24T19:31:24.781Z,1003.7
2022-11-24T19:36:30.997Z,1003.8
2022-11-24T19:41:37.083Z,1003.8
2022-11-24T19:46:43.216Z,1003.8
2022-11-24T19:51:49.305Z,1003.9
2022-11-24T19:56:55.425Z,1003.9
2022-11-24T20:02:01.459Z,1004
2022-11-24T20:07:07.606Z,1004
2022-11-24T20:12:13.762Z,1004
2022-11-24T20:17:18.817Z,1004
2022-11-24T20:22:24.838Z,1004
2022-11-24T20:27:30.932Z,1004.3
2022-11-24T20:32:37.027Z,1004.3
2022-11-24T20:37:43.068Z,1004.3
2022-11-24T20:42:49.317Z,1004.3
2022-11-24T20:47:54.286Z,1004.3
2022-11-24T20:53:00.394Z,1004.3
2022-11-24T20:58:06.485Z,1004.4
2022-11-24T21:03:12.568Z,1004.4
2022-11-24T21:13:24.755Z,1004.4
2022-11-24T21:18:30.870Z,1004.4
2022-11-24T21:23:37.004Z,1004.4
2022-11-24T21:28:43.055Z,1004.5
2022-11-24T21:33:49.185Z,1004.5
2022-11-24T21:38:55.254Z,1004.5
2022-11-24T21:44:01.415Z,1004.5
2022-11-24T21:49:07.453Z,1004.5
2022-11-24T21:54:12.620Z,1004.6
2022-11-24T21:59:18.673Z,1004.6
2022-11-24T22:04:24.753Z,1004.7
2022-11-24T22:09:30.853Z,1004.6
2022-11-24T22:14:36.952Z,1004.7
2022-11-24T22:19:43.105Z,1004.7
2022-11-24T22:24:49.227Z,1004.8
2022-11-24T22:29:55.296Z,1004.9
2022-11-24T22:35:01.324Z,1004.8
2022-11-24T22:40:07.421Z,1004.9
2022-11-24T22:45:13.535Z,1004.9
2022-11-24T22:50:19.633Z,1004.9
2022-11-24T22:55:25.735Z,1005
2022-11-24T23:00:30.861Z,1004.9
2022-11-24T23:05:36.928Z,1004.9
2022-11-24T23:10:43.042Z,1004.9
2022-11-24T23:15:49.141Z,1005
2022-11-24T23:20:55.225Z,1005
2022-11-24T23:26:01.324Z,1005.1
2022-11-24T23:31:07.413Z,1005.1
2022-11-24T23:36:13.538Z,1005
2022-11-24T23:41:19.634Z,1005
2022-11-24T23:46:25.721Z,1005.1
2022-11-24T23:51:31.873Z,1005
2022-11-24T23:56:38.055Z,1005.1
